Tiempo atmosférico en la estación meteorológica de Sopeira, Huesca (760 m.)



Fecha
DESCASC
Temp. máxima en grados centígrados (hora)
DESCASC
Temp. mínima en grados centígrados (hora)
DESCASC
Temp. media en grados centígrados
DESCASC
Racha de viento máxima en m/sg (hora)
DESCASC
Velocidad máxima media en intervalos de 10 minutos(hora)
DESCASC
Precipitaciones diarias en mm
DESCASC
Precipitaciones de 00:00 a 06:00 en mm
DESCASC
Precipitaciones de 06:00 a 12:00 en mm
DESCASC
Precipitaciones de 12:00 a 18:00 en mm
DESCASC
Precipitaciones de 18:00 a 24:00 en mm
DESCASC
31-03-2020 9.1 (15:40) 2.1 (00:50) 5.6 11.67 (06:20) 8.61 (06:20) 8.8 1 0 1.4 6.4
30-03-2020 9.1 (00:00) 2.4 (23:59) 5.8 8.33 (06:10) 5.83 (06:10) 4.8 0 2 1.8 1
29-03-2020 18.8 (15:00) 2.6 (00:00) 10.7 12.22 (06:20) 9.72 (08:00) 0 0 0 0 0
28-03-2020 16.1 (13:40) 3.3 (00:00) 9.7 10.56 (08:00) 7.78 (08:00) 0 0 0 0 0
27-03-2020 13.1 (14:20) -1.2 (-00:0) 6 10.83 (05:00) 7.5 (04:40) 0 0 0 0 0
26-03-2020 10.6 (15:20) 1.8 (00:00) 6.2 14.44 (17:30) 7.22 (11:40) 0 0 0 0 0
25-03-2020 6.6 (00:00) 1.8 (00:00) 4.2 6.39 (08:50) 4.17 (08:50) 1.4 0.4 0.6 0.4 0
24-03-2020 14.7 (12:50) 6.6 (00:00) 10.6 9.17 (16:30) 6.39 (16:20) 0 0 0 0 0
23-03-2020 11.8 (15:50) 6.4 (00:00) 9.1 8.61 (07:10) 6.67 (05:40) 0.2 0 0 0.2 0
22-03-2020 14.7 (16:00) 6.3 (07:50) 10.5 7.78 (21:20) 5 (08:00) 0 0 0 0 0
21-03-2020 16.3 (15:00) 2.3 (00:00) 9.3 10.28 (05:40) 7.5 (06:50) 0 0 0 0 0
20-03-2020 16.7 (16:00) 4.5 (00:00) 10.6 10.28 (05:50) 7.5 (05:50) 0 0 0 0 0
19-03-2020 18.6 (13:40) 5.6 (00:00) 12.1 10.83 (07:30) 8.06 (08:20) 0 0 0 0 0
18-03-2020 15.6 (15:00) 6.9 (00:00) 11.3 10 (08:20) 6.67 (08:10) 0 0 0 0 0
17-03-2020 12.7 (16:40) 7.3 (00:00) 10 13.06 (07:00) 9.17 (07:00) 0 0 0 0 0
16-03-2020 9.3 (00:00) 5.5 (00:00) 7.4 15.83 (15:40) 10.56 (15:40) 38.8 19.2 12.4 4.4 2.8
15-03-2020 18.6 (13:50) 6.9 (00:00) 12.8 13.61 (23:50) 6.39 (08:40) 8 0 0 0 8
14-03-2020 17.4 (14:30) 8.6 (00:00) 13 7.22 (08:30) 5 (15:20) 0 0 0 0 0
13-03-2020 14.4 (16:50) 10.3 (07:20) 12.3 12.78 (01:10) 8.06 (00:50) 0 0 0 0 0
12-03-2020 24.2 (14:40) 7.7 (00:00) 16 13.33 (07:30) 9.44 (04:10) 2 0 0 0 2
11-03-2020 23.8 (15:20) 5.4 (00:00) 14.6 14.17 (06:00) 10 (08:00) 0 0 0 0 0
10-03-2020 18 (16:50) 2.5 (00:00) 10.3 8.33 (22:00) 5.28 (22:10) 0 0 0 0 0
09-03-2020 14 (11:50) 2.9 (00:00) 8.5 14.17 (13:30) 7.22 (01:10) 0 0 0 0 0
08-03-2020 16.3 (15:00) 2 (00:00) 9.1 11.94 (05:40) 9.17 (06:10) 0 0 0 0 0
07-03-2020 14.5 (13:40) 1.4 (00:00) 7.9 21.11 (09:40) 9.44 (09:40) 0 0 0 0 0
06-03-2020 10.8 (14:10) 0.2 (00:00) 5.5 17.22 (14:40) 8.61 (14:50) 0 0 0 0 0
05-03-2020 11.5 (15:50) 4.6 (00:00) 8 11.94 (16:40) 8.06 (00:10) 7.4 0 0.6 6.8 0
04-03-2020 16.9 (16:50) 1.5 (00:00) 9.2 13.06 (05:50) 10 (05:50) 0 0 0 0 0
03-03-2020 11.3 (19:20) 0.1 (00:00) 5.7 14.72 (21:00) 7.22 (20:40) 1.2 0 0.8 0.4 0
02-03-2020 11.7 (13:40) 3.4 (00:00) 7.5 17.5 (13:00) 8.61 (13:00) 35.2 25.8 9.4 0 0

Gráficas

Temp. máximas Temp. mínimas Temp. medias Precipitaciones Rachas de viento máximas Velocidades máximas media en intervalos de 10 minutos

Datos horarios

Fecha y hora oficial Temperatura (ºC) Velocidad del viento (km/h) Dirección del viento Racha (km/h) Dirección de racha Precipitación (mm) Presión (hPa) Tendencia (hPa) Humedad (%)
2020-03-31 23:00:00 6.8 4 Noroeste 13 Noroeste 1.2 -- -- 93
2020-03-31 22:00:00 7 0 Calma 6 Sur 1.4 -- -- 93
2020-03-31 21:00:00 7.3 4 Sur 7 Sudoeste 1.2 -- -- 92
2020-03-31 20:00:00 7.6 0 Calma 4 Sudeste 1.8 -- -- 89
2020-03-31 19:00:00 8 2 Sudeste 12 Noroeste 0.8 -- -- 87
2020-03-31 18:00:00 8.5 4 Oeste 20 Noroeste 0.6 -- -- 79
2020-03-31 17:00:00 8.7 9 Noroeste 22 Noroeste 0.4 -- -- 82
2020-03-31 16:00:00 8.9 16 Noroeste 27 Norte 0.2 -- -- 82
2020-03-31 15:00:00 8.8 9 Oeste 34 Noroeste 0.2 -- -- 81
2020-03-31 14:00:00 7.7 17 Noroeste 25 Noroeste 0 -- -- 84
2020-03-31 13:00:00 7.3 10 Noroeste 26 Noroeste 0 -- -- 82
2020-03-31 12:00:00 6.9 14 Noroeste 29 Noroeste 0 -- -- 82
2020-03-31 11:00:00 5.8 19 Noroeste 35 Noroeste 0 -- -- 84
2020-03-31 10:00:00 4.8 27 Noroeste 39 Noroeste 0 -- -- 87
2020-03-31 09:00:00 4.4 27 Noroeste 36 Noroeste 0 -- -- 87
2020-03-31 08:00:00 4.1 19 Noroeste 30 Noroeste 0 -- -- 87
2020-03-31 07:00:00 4 23 Noroeste 42 Noroeste 0 -- -- 87
2020-03-31 06:00:00 3.9 22 Noroeste 39 Noroeste 0 -- -- 86
2020-03-31 05:00:00 3.9 25 Noroeste 40 Noroeste 0 -- -- 86
2020-03-31 04:00:00 3.7 24 Noroeste 37 Noroeste 0 -- -- 87
2020-03-31 03:00:00 3.6 20 Noroeste 29 Noroeste 0.2 -- -- 87
2020-03-31 02:00:00 3.7 16 Noroeste 31 Noroeste 0.4 -- -- 86
2020-03-31 01:00:00 2.1 2 Nordeste 8 Sudoeste 0.4 -- -- 91
2020-03-31 00:00:00 2.4 7 Sur 10 Sudoeste 0.6 -- -- 88
2020-03-30 23:00:00 3.1 5 Sur 12 Sudoeste 0 -- -- 85
2020-03-30 22:00:00 3.4 2 Sudoeste 10 Sur 0 -- -- 84
2020-03-30 21:00:00 4 0 Calma 6 Sur 0 -- -- 88
2020-03-30 20:00:00 4.1 0 Calma 8 Este 0.2 -- -- 88
2020-03-30 19:00:00 4.1 4 Sudeste 10 Este 0.2 -- -- 88
2020-03-30 18:00:00 4.5 6 Sudeste 10 Sur 0.2 -- -- 87
2020-03-30 17:00:00 4.7 6 Sudeste 12 Sur 0.6 -- -- 89
2020-03-30 16:00:00 4.6 9 Sur 22 Sur 0.2 -- -- 89
2020-03-30 15:00:00 4.6 14 Sur 19 Sur 0 -- -- 90
2020-03-30 14:00:00 4.7 7 Sur 12 Sudoeste 0.2 -- -- 90
2020-03-30 13:00:00 3.2 12 Sudoeste 16 Sudoeste 0.6 -- -- 91
2020-03-30 12:00:00 3.5 10 Sur 25 Sudoeste 2 -- -- 88
2020-03-30 11:00:00 4.9 11 Sur 24 Sur 0 -- -- 86
2020-03-30 10:00:00 5.2 13 Sur 17 Sudoeste 0 -- -- 86
2020-03-30 09:00:00 5.5 12 Sur 22 Sudoeste 0 -- -- 84
2020-03-30 08:00:00 5.7 10 Sur 22 Sur 0 -- -- 82
2020-03-30 07:00:00 6.5 13 Sur 30 Sur 0 -- -- 78
2020-03-30 06:00:00 7.7 18 Sudoeste 26 Sur 0 -- -- 74
2020-03-30 05:00:00 8 5 Sudeste 14 Noroeste 0 -- -- 77
2020-03-30 04:00:00 8.6 9 Noroeste 19 Noroeste 0 -- -- 73
2020-03-30 03:00:00 8.8 13 Norte 23 Noroeste 0 -- -- 71
2020-03-30 02:00:00 8.7 14 Norte 25 Noroeste 0 -- -- 74
2020-03-30 01:00:00 9 17 Noroeste 28 Noroeste 0 -- -- 70
2020-03-30 00:00:00 9.1 18 Noroeste 30 Noroeste 0 -- -- 70
2020-03-29 23:00:00 9.6 18 Norte 30 Noroeste 0 -- -- 65
2020-03-29 22:00:00 10 16 Norte 35 Noroeste 0 -- -- 68
2020-03-29 21:00:00 10.1 17 Noroeste 32 Noroeste 0 -- -- 72
2020-03-29 20:00:00 11.6 10 Norte 29 Noroeste 0 -- -- 64
2020-03-29 19:00:00 15 13 Sudoeste 22 Sur 0 -- -- 39
2020-03-29 18:00:00 16.8 12 Sur 25 Sudoeste 0 -- -- 39
2020-03-29 17:00:00 17.5 8 Sur 27 Sur 0 -- -- 40
2020-03-29 16:00:00 17.9 18 Sur 28 Sur 0 -- -- 40
2020-03-29 15:00:00 18.8 14 Sur 25 Sudoeste 0 -- -- 33
2020-03-29 14:00:00 17.8 8 Sur 16 Sur 0 -- -- 36
2020-03-29 13:00:00 16.2 9 Sur 16 Sur 0 -- -- 41
2020-03-29 12:00:00 15 6 Sudeste 15 Noroeste 0 -- -- 46
2020-03-29 11:00:00 8.6 14 Noroeste 31 Noroeste 0 -- -- 61
2020-03-29 10:00:00 5 22 Noroeste 39 Noroeste 0 -- -- 75
2020-03-29 09:00:00 3.1 28 Noroeste 44 Noroeste 0 -- -- 82
2020-03-29 08:00:00 2.9 35 Noroeste 43 Noroeste 0 -- -- 84
2020-03-29 07:00:00 3.5 32 Noroeste 44 Noroeste 0 -- -- 82
2020-03-29 06:00:00 3.7 27 Noroeste 40 Noroeste 0 -- -- 83
2020-03-29 05:00:00 4.4 27 Noroeste 40 Noroeste 0 -- -- 82
2020-03-29 03:00:00 5.3 28 Noroeste 39 Noroeste 0 -- -- 81
2020-03-29 01:00:00 5.9 27 Noroeste 35 Noroeste 0 -- -- 79
2020-03-29 00:00:00 6.7 24 Noroeste 31 Noroeste 0 -- -- 76
2020-03-28 23:00:00 7.5 18 Noroeste 28 Noroeste 0 -- -- 74
2020-03-28 22:00:00 8.5 13 Noroeste 21 Noroeste 0 -- -- 70
2020-03-28 21:00:00 10 8 Noroeste 12 Noroeste 0 -- -- 63
2020-03-28 20:00:00 11.2 3 Sudeste 13 Sudoeste 0 -- -- 58
2020-03-28 19:00:00 12.3 4 Sur 11 Sur 0 -- -- 56
2020-03-28 18:00:00 13.1 6 Sur 22 Sudoeste 0 -- -- 54
2020-03-28 17:00:00 13.5 11 Sur 21 Sur 0 -- -- 51
2020-03-28 16:00:00 15.2 11 Sur 22 Sudoeste 0 -- -- 45
2020-03-28 15:00:00 15.4 7 Sur 23 Sur 0 -- -- 44
2020-03-28 14:00:00 15.4 13 Sur 26 Sur 0 -- -- 41
2020-03-28 13:00:00 14.9 17 Sur 25 Sur 0 -- -- 43
2020-03-28 12:00:00 13.7 10 Sur 23 Sur 0 -- -- 51
2020-03-28 11:00:00 11.5 10 Sur 14 Sudoeste 0 -- -- 52
2020-03-28 10:00:00 9.5 4 Nordeste 24 Noroeste 0 -- -- 64
2020-03-28 09:00:00 5 23 Noroeste 35 Noroeste 0 -- -- 73
2020-03-28 08:00:00 3.5 28 Noroeste 38 Noroeste 0 -- -- 78
2020-03-28 07:00:00 3.3 27 Noroeste 37 Noroeste 0 -- -- 81
2020-03-28 06:00:00 4 19 Noroeste 34 Noroeste 0 -- -- 77
2020-03-28 05:00:00 4.6 18 Noroeste 32 Noroeste 0 -- -- 75
2020-03-28 04:00:00 5.2 19 Noroeste 28 Noroeste 0 -- -- 73
2020-03-28 03:00:00 5.7 21 Noroeste 28 Noroeste 0 -- -- 69
2020-03-28 02:00:00 6 15 Noroeste 27 Noroeste 0 -- -- 68
2020-03-28 01:00:00 6 15 Noroeste 24 Noroeste 0 -- -- 68
2020-03-28 00:00:00 6.1 11 Noroeste 17 Noroeste 0 -- -- 67
2020-03-27 23:00:00 6.3 6 Noroeste 12 Noroeste 0 -- -- 66
2020-03-27 22:00:00 6.7 0 Calma 7 Sudoeste 0 -- -- 64
2020-03-27 21:00:00 6.9 3 Sudeste 9 Sudoeste 0 -- -- 62
2020-03-27 20:00:00 8 5 Sur 22 Sur 0 -- -- 58
2020-03-27 19:00:00 9.5 16 Sur 24 Sur 0 -- -- 51
2020-03-27 18:00:00 11.4 10 Sur 20 Sur 0 -- -- 40
2020-03-27 17:00:00 12.1 13 Sur 19 Sudoeste 0 -- -- 37
2020-03-27 16:00:00 12.2 12 Sur 22 Sur 0 -- -- 36
2020-03-27 15:00:00 12.1 10 Sur 21 Sudoeste 0 -- -- 35
2020-03-27 14:00:00 12.6 12 Sur 21 Sur 0 -- -- 35
2020-03-27 13:00:00 11.6 12 Sur 21 Sur 0 -- -- 41
2020-03-27 12:00:00 10.1 7 Sur 15 Sur 0 -- -- 43
2020-03-27 11:00:00 9.2 9 Sur 14 Sur 0 -- -- 44
2020-03-27 10:00:00 3.6 6 Noroeste 30 Noroeste 0 -- -- 57
2020-03-27 09:00:00 0.5 20 Noroeste 33 Noroeste 0 -- -- 71
2020-03-27 08:00:00 -1 22 Noroeste 32 Noroeste 0 -- -- 80
2020-03-27 07:00:00 -1.2 25 Noroeste 34 Noroeste 0 -- -- 80
2020-03-27 06:00:00 -0.8 23 Noroeste 37 Noroeste 0 -- -- 79
2020-03-27 05:00:00 -0.5 24 Noroeste 39 Noroeste 0 -- -- 77
2020-03-27 04:00:00 -0.2 23 Noroeste 33 Noroeste 0 -- -- 78
2020-03-27 03:00:00 0.2 22 Noroeste 34 Noroeste 0 -- -- 76
2020-03-27 02:00:00 0.6 22 Noroeste 33 Noroeste 0 -- -- 76
2020-03-27 01:00:00 1.1 20 Noroeste 28 Noroeste 0 -- -- 76
2020-03-27 00:00:00 1.8 13 Noroeste 21 Noroeste 0 -- -- 74
2020-03-26 23:00:00 2.1 8 Noroeste 15 Noroeste 0 -- -- 77
2020-03-26 22:00:00 2.4 0 Calma 7 Sudoeste 0 -- -- 75
2020-03-26 21:00:00 3.3 2 Sur 10 Este 0 -- -- 72
2020-03-26 20:00:00 4.6 3 Sudeste 18 Sur 0 -- -- 65
2020-03-26 19:00:00 5.8 8 Oeste 21 Sur 0 -- -- 61
2020-03-26 18:00:00 7 12 Sur 52 Oeste 0 -- -- 55
2020-03-26 17:00:00 9.5 13 Noroeste 37 Noroeste 0 -- -- 28
2020-03-26 16:00:00 9.1 12 Noroeste 31 Noroeste 0 -- -- 29
2020-03-26 15:00:00 10.3 10 Sudoeste 35 Norte 0 -- -- 28
2020-03-26 14:00:00 9.3 13 Noroeste 32 Sudeste 0 -- -- 31
2020-03-26 13:00:00 8.7 10 Noroeste 48 Noroeste 0 -- -- 29
2020-03-26 12:00:00 8.1 18 Noroeste 48 Noroeste 0 -- -- 34
2020-03-26 11:00:00 8.9 13 Norte 45 Norte 0 -- -- 35
2020-03-26 10:00:00 7.2 13 Norte 46 Noroeste 0 -- -- 46
2020-03-26 09:00:00 5 17 Norte 31 Noroeste 0 -- -- 69
2020-03-26 08:00:00 3.5 14 Noroeste 20 Noroeste 0 -- -- 83
2020-03-26 07:00:00 3.1 4 Noroeste 15 Noroeste 0 -- -- 86
2020-03-26 06:00:00 3.3 7 Sudoeste 11 Sudoeste 0 -- -- 86
2020-03-26 05:00:00 3.6 3 Sur 9 Sur 0 -- -- 85
2020-03-26 04:00:00 3.8 3 Sudoeste 8 Sudoeste 0 -- -- 84
2020-03-26 03:00:00 4 0 Calma 5 Sudoeste 0 -- -- 83
2020-03-26 02:00:00 3.9 4 Sudoeste 8 Sudoeste 0 -- -- 83
2020-03-26 01:00:00 4 6 Sur 10 Sudoeste 0 -- -- 83
2020-03-26 00:00:00 4 3 Sur 6 Sudoeste 0 -- -- 84
2020-03-25 23:00:00 4.1 5 Sur 9 Sur 0 -- -- 82
2020-03-25 22:00:00 4.2 4 Sur 11 Sudoeste 0 -- -- 82
2020-03-25 21:00:00 4.1 0 Calma 6 Este 0 -- -- 82
2020-03-25 20:00:00 4.2 2 Sudoeste 7 Sudoeste 0 -- -- 80
2020-03-25 19:00:00 4.2 3 Sur 8 Sudoeste 0 -- -- 82
2020-03-25 18:00:00 4.4 6 Sudoeste 10 Sudoeste 0 -- -- 79
2020-03-25 17:00:00 4.4 8 Sur 12 Sur 0 -- -- 80
2020-03-25 16:00:00 4.4 4 Sur 12 Sur 0 -- -- 80
2020-03-25 15:00:00 4.4 3 Sur 13 Sur 0 -- -- 84
2020-03-25 14:00:00 4.2 5 Sur 11 Sudoeste 0 -- -- 85
2020-03-25 13:00:00 3.1 5 Sudeste 12 Sur 0.4 -- -- 91
2020-03-25 12:00:00 2 8 Sur 16 Sudoeste 0.4 -- -- 91
2020-03-25 11:00:00 1.9 9 Sudoeste 14 Sur 0.2 -- -- 89
2020-03-25 10:00:00 2.2 6 Sur 20 Sur 0 -- -- 84
2020-03-25 09:00:00 2.9 12 Sur 23 Sudoeste 0 -- -- 81
2020-03-25 08:00:00 3.4 12 Sur 20 Sur 0 -- -- 90
2020-03-25 07:00:00 3.6 10 Sur 16 Sur 0 -- -- 89
2020-03-25 06:00:00 4 8 Sur 18 Sur 0 -- -- 89
2020-03-25 05:00:00 4.5 9 Sur 15 Sur 0 -- -- 90
2020-03-25 04:00:00 4.9 7 Sur 13 Sur 0.2 -- -- 92
2020-03-25 03:00:00 5.1 8 Sur 14 Sur 0 -- -- 91
2020-03-25 02:00:00 5.5 4 Sur 16 Sudoeste 0 -- -- 89
2020-03-25 01:00:00 6 7 Sudoeste 14 Sur 0.2 -- -- 87
2020-03-25 00:00:00 6.6 6 Sur 18 Sur 0 -- -- 85
2020-03-24 23:00:00 7.1 6 Sudoeste 19 Sudoeste 0 -- -- 79
2020-03-24 22:00:00 7.5 7 Sur 18 Sur 0 -- -- 84
2020-03-24 21:00:00 8.3 13 Sur 18 Sur 0 -- -- 81
2020-03-24 20:00:00 8.8 8 Sur 18 Sudoeste 0 -- -- 76
2020-03-24 19:00:00 9.4 12 Sur 25 Sudoeste 0 -- -- 76
2020-03-24 18:00:00 10.1 11 Sur 30 Sur 0 -- -- 72
2020-03-24 17:00:00 11.5 20 Sur 33 Sur 0 -- -- 63
2020-03-24 16:00:00 13.3 17 Sur 29 Sur 0 -- -- 57
2020-03-24 15:00:00 14 11 Sur 27 Sur 0 -- -- 55
2020-03-24 14:00:00 14.7 13 Sur 23 Sur 0 -- -- 54
2020-03-24 13:00:00 13.8 14 Sudoeste 22 Sur 0 -- -- 57
2020-03-24 12:00:00 13.3 9 Sur 19 Sur 0 -- -- 63
2020-03-24 11:00:00 11.4 6 Este 12 Sur 0 -- -- 70
2020-03-24 10:00:00 9.2 8 Sur 12 Sur 0 -- -- 75
2020-03-24 09:00:00 8.7 4 Este 10 Nordeste 0 -- -- 80
2020-03-24 08:00:00 7.5 5 Noroeste 14 Noroeste 0 -- -- 82
2020-03-24 07:00:00 7.6 7 Noroeste 13 Noroeste 0 -- -- 83
2020-03-24 06:00:00 7.6 10 Noroeste 19 Noroeste 0 -- -- 83
2020-03-24 05:00:00 7.7 14 Noroeste 21 Noroeste 0 -- -- 83
2020-03-24 04:00:00 7.8 13 Noroeste 20 Noroeste 0 -- -- 83
2020-03-24 03:00:00 8 10 Noroeste 15 Noroeste 0 -- -- 84
2020-03-24 02:00:00 8.2 9 Noroeste 20 Noroeste 0 -- -- 84
2020-03-24 01:00:00 8.6 12 Noroeste 17 Noroeste 0 -- -- 81
2020-03-24 00:00:00 9.2 7 Oeste 22 Noroeste 0 -- -- 78
2020-03-23 23:00:00 9.4 16 Noroeste 22 Noroeste 0 -- -- 77
2020-03-23 22:00:00 9.7 13 Noroeste 23 Noroeste 0 -- -- 75
2020-03-23 21:00:00 10.2 14 Noroeste 23 Noroeste 0 -- -- 74
2020-03-23 20:00:00 11 6 Noroeste 15 Oeste 0 -- -- 69
2020-03-23 19:00:00 11.4 5 Oeste 16 Sudoeste 0 -- -- 66
2020-03-23 18:00:00 11.7 9 Sudoeste 30 Sur 0 -- -- 64
2020-03-23 17:00:00 11.6 17 Sur 27 Sur 0 -- -- 65
2020-03-23 16:00:00 11.8 18 Sur 31 Sudoeste 0 -- -- 65
2020-03-23 15:00:00 11.5 15 Sudoeste 22 Sudoeste 0.2 -- -- 70
2020-03-23 14:00:00 11 5 Nordeste 22 Sur 0 -- -- 73
2020-03-23 13:00:00 10.9 14 Sur 30 Sur 0 -- -- 70
2020-03-23 12:00:00 11.3 12 Sur 22 Sudoeste 0 -- -- 67
2020-03-23 11:00:00 10.4 9 Noroeste 25 Noroeste 0 -- -- 70
2020-03-23 10:00:00 9.1 9 Noroeste 24 Noroeste 0 -- -- 76
2020-03-23 09:00:00 7.7 17 Noroeste 29 Noroeste 0 -- -- 82
2020-03-23 08:00:00 7.1 16 Noroeste 31 Noroeste 0 -- -- 85
2020-03-23 07:00:00 7.1 19 Noroeste 30 Noroeste 0 -- -- 84
2020-03-23 06:00:00 6.7 21 Noroeste 31 Noroeste 0 -- -- 86
2020-03-23 05:00:00 6.5 17 Noroeste 29 Noroeste 0 -- -- 87
2020-03-23 04:00:00 7 13 Noroeste 19 Noroeste 0 -- -- 85
2020-03-23 03:00:00 8.1 16 Noroeste 24 Noroeste 0 -- -- 83
2020-03-23 02:00:00 9 10 Noroeste 18 Noroeste 0 -- -- 77
2020-03-23 01:00:00 9.4 0 Calma 13 Sudoeste 0 -- -- 74
2020-03-23 00:00:00 9.6 10 Sudoeste 15 Sudoeste 0 -- -- 73
2020-03-22 23:00:00 9.5 3 Sur 14 Sur 0 -- -- 73
2020-03-22 22:00:00 10.4 7 Sur 28 Sudoeste 0 -- -- 69
2020-03-22 21:00:00 11.1 5 Sur 19 Sudoeste 0 -- -- 70
2020-03-22 20:00:00 11.7 10 Sur 21 Sur 0 -- -- 68
2020-03-22 19:00:00 12.9 4 Norte 20 Sudoeste 0 -- -- 53
2020-03-22 18:00:00 13.3 9 Sudoeste 21 Sudoeste 0 -- -- 48
2020-03-22 17:00:00 13.7 11 Sur 23 Sudeste 0 -- -- 48
2020-03-22 16:00:00 14.7 13 Sur 24 Sur 0 -- -- 43
2020-03-22 15:00:00 14.2 13 Sur 27 Sudoeste 0 -- -- 49
2020-03-22 14:00:00 13.1 11 Sur 23 Sur 0 -- -- 54
2020-03-22 13:00:00 12.7 11 Sudoeste 15 Sur 0 -- -- 57
2020-03-22 12:00:00 11.7 5 Sur 11 Sudoeste 0 -- -- 64
2020-03-22 11:00:00 10 4 Sur 6 Sur 0 -- -- 74
2020-03-22 10:00:00 8.1 2 Nordeste 16 Noroeste 0 -- -- 80
2020-03-22 09:00:00 7 13 Noroeste 24 Noroeste 0 -- -- 80
2020-03-22 08:00:00 6.3 18 Noroeste 24 Noroeste 0 -- -- 82
2020-03-22 07:00:00 6.7 15 Noroeste 23 Noroeste 0 -- -- 81
2020-03-22 06:00:00 7.1 8 Noroeste 21 Noroeste 0 -- -- 79
2020-03-22 05:00:00 7.3 13 Noroeste 21 Noroeste 0 -- -- 77
2020-03-22 04:00:00 7.4 15 Noroeste 20 Noroeste 0 -- -- 76
2020-03-22 03:00:00 7.4 12 Noroeste 17 Noroeste 0 -- -- 74
2020-03-22 02:00:00 7 6 Noroeste 11 Noroeste 0 -- -- 79
2020-03-22 01:00:00 7 2 Oeste 7 Noroeste 0 -- -- 79
2020-03-22 00:00:00 7.9 0 Calma 9 Noroeste 0 -- -- 73
2020-03-21 23:00:00 9.1 0 Calma 10 Noroeste 0 -- -- 70
2020-03-21 22:00:00 9.5 7 Noroeste 10 Noroeste 0 -- -- 69
2020-03-21 21:00:00 10 0 Calma 9 Este 0 -- -- 65
2020-03-21 20:00:00 11 4 Sudeste 11 Sudoeste 0 -- -- 62
2020-03-21 19:00:00 12.6 6 Sur 17 Sur 0 -- -- 57
2020-03-21 18:00:00 14.1 13 Sur 22 Sur 0 -- -- 47
2020-03-21 17:00:00 15.7 13 Sur 21 Sur 0 -- -- 38
2020-03-21 16:00:00 16.1 8 Sudeste 20 Sudoeste 0 -- -- 36
2020-03-21 15:00:00 16.3 10 Sur 19 Sudoeste 0 -- -- 38
2020-03-21 14:00:00 15.1 8 Sur 19 Sur 0 -- -- 43
2020-03-21 13:00:00 14.2 7 Sur 20 Sur 0 -- -- 49
2020-03-21 12:00:00 12.6 9 Sur 15 Sur 0 -- -- 52
2020-03-21 11:00:00 11.8 6 Sudeste 13 Norte 0 -- -- 64
2020-03-21 10:00:00 6.3 13 Noroeste 30 Noroeste 0 -- -- 76
2020-03-21 09:00:00 3.4 19 Noroeste 32 Noroeste 0 -- -- 85
2020-03-21 08:00:00 2.4 21 Noroeste 35 Noroeste 0 -- -- 88
2020-03-21 07:00:00 2.5 24 Noroeste 35 Noroeste 0 -- -- 88
2020-03-21 06:00:00 3 22 Noroeste 37 Noroeste 0 -- -- 87
2020-03-21 05:00:00 3.4 21 Noroeste 28 Noroeste 0 -- -- 87
2020-03-21 04:00:00 4 16 Noroeste 30 Noroeste 0 -- -- 85
2020-03-21 03:00:00 4.7 18 Noroeste 30 Noroeste 0 -- -- 83
2020-03-21 02:00:00 5.4 19 Noroeste 28 Noroeste 0 -- -- 81
2020-03-21 01:00:00 6.2 13 Noroeste 24 Noroeste 0 -- -- 77
2020-03-21 00:00:00 6.8 14 Noroeste 23 Noroeste 0 -- -- 76
2020-03-20 23:00:00 7.7 15 Noroeste 23 Noroeste 0 -- -- 73
2020-03-20 22:00:00 8.7 9 Noroeste 13 Noroeste 0 -- -- 68
2020-03-20 21:00:00 9.6 0 Calma 8 Sudeste 0 -- -- 62
2020-03-20 20:00:00 10.8 4 Sudeste 16 Sur 0 -- -- 56
2020-03-20 19:00:00 12.4 8 Sur 21 Sur 0 -- -- 54
2020-03-20 18:00:00 14.6 12 Sur 28 Sur 0 -- -- 45
2020-03-20 17:00:00 15.7 11 Sur 24 Sur 0 -- -- 41
2020-03-20 16:00:00 16.7 10 Sur 23 Sur 0 -- -- 38
2020-03-20 15:00:00 16 10 Sur 24 Sudoeste 0 -- -- 39
2020-03-20 14:00:00 16.3 8 Sur 23 Sur 0 -- -- 42
2020-03-20 13:00:00 15.2 14 Sur 21 Sudoeste 0 -- -- 44
2020-03-20 12:00:00 15 8 Sur 17 Sur 0 -- -- 52
2020-03-20 11:00:00 12.7 8 Sur 12 Sur 0 -- -- 52
2020-03-20 10:00:00 9.1 6 Norte 24 Noroeste 0 -- -- 69
2020-03-20 09:00:00 6.6 19 Noroeste 29 Noroeste 0 -- -- 78
2020-03-20 08:00:00 4.9 21 Noroeste 34 Noroeste 0 -- -- 86
2020-03-20 07:00:00 4.5 23 Noroeste 32 Noroeste 0 -- -- 88
2020-03-20 06:00:00 4.7 21 Noroeste 37 Noroeste 0 -- -- 87
2020-03-20 05:00:00 5.2 22 Noroeste 35 Noroeste 0 -- -- 85
2020-03-20 04:00:00 5.5 21 Noroeste 32 Noroeste 0 -- -- 84
2020-03-20 03:00:00 5.8 21 Noroeste 35 Noroeste 0 -- -- 83
2020-03-20 02:00:00 6.6 21 Noroeste 32 Noroeste 0 -- -- 80
2020-03-20 01:00:00 7.1 20 Noroeste 32 Noroeste 0 -- -- 79
2020-03-20 00:00:00 8 16 Noroeste 28 Noroeste 0 -- -- 75
2020-03-19 23:00:00 8.9 14 Noroeste 21 Noroeste 0 -- -- 73
2020-03-19 22:00:00 10 10 Noroeste 13 Noroeste 0 -- -- 67
2020-03-19 21:00:00 10.8 0 Calma 8 Este 0 -- -- 62
2020-03-19 20:00:00 12.1 3 Sudeste 12 Sudeste 0 -- -- 55
2020-03-19 19:00:00 13.7 6 Sudeste 18 Sudoeste 0 -- -- 49
2020-03-19 18:00:00 15.8 13 Sur 29 Sudoeste 0 -- -- 43
2020-03-19 17:00:00 17.1 8 Sur 18 Sur 0 -- -- 37
2020-03-19 16:00:00 17.1 10 Sudoeste 23 Sur 0 -- -- 37
2020-03-19 15:00:00 17.9 15 Sur 38 Sudoeste 0 -- -- 36
2020-03-19 14:00:00 18.1 14 Sur 29 Sur 0 -- -- 40
2020-03-19 13:00:00 18.5 9 Sur 16 Sur 0 -- -- 52
2020-03-19 12:00:00 16.4 9 Sur 14 Sur 0 -- -- 62
2020-03-19 11:00:00 11.9 5 Norte 28 Noroeste 0 -- -- 70
2020-03-19 10:00:00 8.1 21 Noroeste 34 Noroeste 0 -- -- 84
2020-03-19 09:00:00 6.3 27 Noroeste 38 Noroeste 0 -- -- 92
2020-03-19 08:00:00 5.8 26 Noroeste 39 Noroeste 0 -- -- 92
2020-03-19 07:00:00 6.1 24 Noroeste 35 Noroeste 0 -- -- 92
2020-03-19 06:00:00 6.4 22 Noroeste 34 Noroeste 0 -- -- 92
2020-03-19 05:00:00 6.8 18 Noroeste 37 Noroeste 0 -- -- 91
2020-03-19 04:00:00 7 25 Noroeste 37 Noroeste 0 -- -- 90
2020-03-19 03:00:00 7.4 26 Noroeste 35 Noroeste 0 -- -- 89
2020-03-19 02:00:00 7.7 23 Noroeste 32 Noroeste 0 -- -- 89
2020-03-19 01:00:00 8.2 21 Noroeste 28 Noroeste 0 -- -- 88
2020-03-19 00:00:00 8.7 19 Noroeste 27 Noroeste 0 -- -- 88
2020-03-18 23:00:00 9.2 16 Noroeste 27 Noroeste 0 -- -- 87
2020-03-18 22:00:00 9.9 12 Noroeste 17 Noroeste 0 -- -- 85
2020-03-18 21:00:00 10.8 10 Noroeste 14 Noroeste 0 -- -- 83
2020-03-18 20:00:00 12 0 Calma 8 Oeste 0 -- -- 79
2020-03-18 19:00:00 13.2 5 Sudoeste 15 Oeste 0 -- -- 74
2020-03-18 18:00:00 14.2 2 Sur 13 Sur 0 -- -- 62
2020-03-18 17:00:00 14.9 10 Sur 18 Sur 0 -- -- 61
2020-03-18 16:00:00 15.6 10 Sur 15 Sudoeste 0 -- -- 62
2020-03-18 15:00:00 15.6 8 Sur 16 Sudoeste 0 -- -- 64
2020-03-18 14:00:00 15 9 Sur 14 Sur 0 -- -- 61
2020-03-18 13:00:00 14.3 6 Sur 12 Sudoeste 0 -- -- 73
2020-03-18 12:00:00 11.6 3 Este 9 Noroeste 0 -- -- 82
2020-03-18 11:00:00 9 2 Norte 22 Noroeste 0 -- -- 87
2020-03-18 10:00:00 7.4 13 Noroeste 28 Noroeste 0 -- -- 88
2020-03-18 09:00:00 7 17 Noroeste 36 Noroeste 0 -- -- 90
2020-03-18 08:00:00 6.9 21 Noroeste 35 Noroeste 0 -- -- 91
2020-03-18 07:00:00 7.1 21 Noroeste 31 Noroeste 0 -- -- 91
2020-03-18 06:00:00 7.5 15 Noroeste 30 Noroeste 0 -- -- 90
2020-03-18 05:00:00 7.7 18 Noroeste 27 Noroeste 0 -- -- 91
2020-03-18 04:00:00 8 14 Noroeste 24 Noroeste 0 -- -- 91
2020-03-18 03:00:00 8.2 16 Noroeste 27 Noroeste 0 -- -- 90
2020-03-18 02:00:00 8.3 19 Noroeste 27 Noroeste 0 -- -- 91
2020-03-18 01:00:00 8.4 19 Noroeste 26 Noroeste 0 -- -- 91
2020-03-18 00:00:00 8.9 10 Noroeste 18 Noroeste 0 -- -- 91
2020-03-17 23:00:00 9.4 10 Noroeste 20 Noroeste 0 -- -- 89
2020-03-17 22:00:00 9.6 13 Noroeste 20 Norte 0 -- -- 89
2020-03-17 21:00:00 10 8 Noroeste 18 Noroeste 0 -- -- 88
2020-03-17 20:00:00 10.8 8 Noroeste 15 Noroeste 0 -- -- 85
2020-03-17 19:00:00 11.9 0 Calma 8 Noroeste 0 -- -- 80
2020-03-17 18:00:00 12.4 4 Noroeste 9 Noroeste 0 -- -- 77
2020-03-17 17:00:00 12.6 6 Noroeste 9 Oeste 0 -- -- 75
2020-03-17 16:00:00 12.5 5 Noroeste 10 Noroeste 0 -- -- 76
2020-03-17 15:00:00 12.3 0 Calma 8 Sudoeste 0 -- -- 77
2020-03-17 14:00:00 12.2 3 Sur 7 Sudoeste 0 -- -- 77
2020-03-17 13:00:00 11.4 6 Noroeste 25 Noroeste 0 -- -- 80
2020-03-17 12:00:00 10.4 18 Noroeste 33 Noroeste 0 -- -- 81
2020-03-17 11:00:00 9.6 21 Noroeste 36 Noroeste 0 -- -- 83
2020-03-17 10:00:00 9 25 Noroeste 36 Noroeste 0 -- -- 83
2020-03-17 09:00:00 8.5 27 Noroeste 42 Noroeste 0 -- -- 84
2020-03-17 08:00:00 8.3 26 Noroeste 44 Noroeste 0 -- -- 83
2020-03-17 07:00:00 8.1 33 Noroeste 47 Noroeste 0 -- -- 83
2020-03-17 06:00:00 7.9 30 Noroeste 41 Noroeste 0 -- -- 84
2020-03-17 05:00:00 7.7 30 Noroeste 46 Noroeste 0 -- -- 84
2020-03-17 04:00:00 7.3 28 Noroeste 41 Noroeste 0 -- -- 86
2020-03-17 03:00:00 7.3 26 Noroeste 39 Noroeste 0 -- -- 86
2020-03-17 02:00:00 8 23 Noroeste 38 Norte 0 -- -- 83
2020-03-17 01:00:00 8.2 26 Noroeste 42 Noroeste 0 -- -- 83
2020-03-17 00:00:00 8.9 28 Norte 46 Noroeste 0 -- -- 79
2020-03-16 23:00:00 8.3 35 Noroeste 53 Noroeste 0.4 -- -- 83
2020-03-16 22:00:00 7.7 26 Norte 44 Norte 2 -- -- 87
2020-03-16 21:00:00 8.5 18 Noroeste 44 Noroeste 0.4 -- -- 79
2020-03-16 20:00:00 8.1 20 Norte 49 Noroeste 0 -- -- 82
2020-03-16 19:00:00 8.1 35 Noroeste 54 Noroeste 0 -- -- 79
2020-03-16 18:00:00 7.2 35 Noroeste 51 Noroeste 0.2 -- -- 84
2020-03-16 17:00:00 7 31 Noroeste 44 Norte 0.2 -- -- 84
2020-03-16 16:00:00 6.6 37 Noroeste 57 Noroeste 0 -- -- 80
2020-03-16 15:00:00 6 36 Norte 52 Noroeste 0 -- -- 82
2020-03-16 14:00:00 5.5 27 Norte 40 Norte 1 -- -- 85
2020-03-16 13:00:00 6.7 22 Noroeste 38 Noroeste 3 -- -- 85
2020-03-16 12:00:00 7 10 Norte 22 Noroeste 1 -- -- 89
2020-03-16 11:00:00 7.1 6 Oeste 18 Noroeste 1.8 -- -- 90
2020-03-16 10:00:00 7 12 Noroeste 21 Noroeste 2 -- -- 90
2020-03-16 09:00:00 7.1 8 Noroeste 26 Norte 3.4 -- -- 90
2020-03-16 08:00:00 7.2 17 Norte 26 Noroeste 2.2 -- -- 88
2020-03-16 07:00:00 7.8 5 Sudoeste 24 Sur 2 -- -- 81
2020-03-16 06:00:00 8.3 9 Sudoeste 28 Sudoeste 2.6 -- -- 85
2020-03-16 05:00:00 7.7 0 Calma 8 Sudeste 4 -- -- 91
2020-03-16 04:00:00 8.1 6 Sudeste 22 Sudoeste 3.4 -- -- 87
2020-03-16 03:00:00 8.5 15 Sudoeste 40 Sur 2.2 -- -- 84
2020-03-16 02:00:00 8.7 12 Este 46 Nordeste 2.4 -- -- 82
2020-03-16 01:00:00 8.6 4 Sur 29 Sudoeste 4.6 -- -- 87
2020-03-16 00:00:00 9.3 22 Sur 49 Sur 0.2 -- -- 82
2020-03-15 23:00:00 9.6 12 Sudoeste 37 Sudoeste 2.2 -- -- 81
2020-03-15 22:00:00 9.8 18 Sudoeste 26 Sudoeste 1 -- -- 84
2020-03-15 21:00:00 10.6 8 Sudoeste 22 Sur 0.2 -- -- 85
2020-03-15 20:00:00 11 3 Noroeste 36 Sur 4.4 -- -- 86
2020-03-15 19:00:00 12.9 17 Sur 30 Sudoeste 0 -- -- 72
2020-03-15 18:00:00 14.7 15 Sur 35 Sur 0 -- -- 62
2020-03-15 17:00:00 15.9 15 Sur 27 Sudoeste 0 -- -- 57
2020-03-15 16:00:00 17.1 15 Sur 21 Sur 0 -- -- 48
2020-03-15 15:00:00 17.9 9 Sur 18 Sudoeste 0 -- -- 39
2020-03-15 14:00:00 18.4 9 Sur 18 Sur 0 -- -- 24
2020-03-15 13:00:00 17 10 Sudoeste 16 Sudoeste 0 -- -- 28
2020-03-15 12:00:00 17.1 7 Sur 14 Sur 0 -- -- 41
2020-03-15 11:00:00 15.4 7 Sudeste 10 Sudeste 0 -- -- 61
2020-03-15 10:00:00 11 5 Norte 23 Noroeste 0 -- -- 71
2020-03-15 09:00:00 8.3 18 Noroeste 29 Noroeste 0 -- -- 80
2020-03-15 08:00:00 7.3 18 Noroeste 26 Noroeste 0 -- -- 84
2020-03-15 07:00:00 7 8 Norte 17 Noroeste 0 -- -- 93
2020-03-15 06:00:00 7.4 0 Calma 3 Sudeste 0 -- -- 91
2020-03-15 05:00:00 7.8 0 Calma 4 Sur 0 -- -- 89
2020-03-15 04:00:00 8.6 0 Calma 4 Sur 0 -- -- 86
2020-03-15 03:00:00 9.5 0 Calma 5 Sur 0 -- -- 84
2020-03-15 02:00:00 9.9 2 Sur 7 Sur 0 -- -- 83
2020-03-15 01:00:00 10.2 2 Sur 9 Sur 0 -- -- 81
2020-03-15 00:00:00 11 0 Calma 8 Sudoeste 0 -- -- 78
2020-03-14 23:00:00 11.2 4 Sur 7 Sur 0 -- -- 77
2020-03-14 22:00:00 11.5 4 Sur 11 Oeste 0 -- -- 77
2020-03-14 21:00:00 12 6 Sudoeste 13 Sur 0 -- -- 75
2020-03-14 20:00:00 12.2 8 Sur 18 Sudoeste 0 -- -- 75
2020-03-14 19:00:00 13 14 Sur 21 Sur 0 -- -- 71
2020-03-14 18:00:00 14.6 15 Sur 22 Sur 0 -- -- 66
2020-03-14 17:00:00 14.9 14 Sur 26 Sur 0 -- -- 66
2020-03-14 16:00:00 16.3 15 Sur 26 Sur 0 -- -- 60
2020-03-14 15:00:00 16.6 15 Sur 24 Sur 0 -- -- 60
2020-03-14 14:00:00 16.8 15 Sur 25 Sudoeste 0 -- -- 58
2020-03-14 13:00:00 16.4 14 Sur 22 Sur 0 -- -- 58
2020-03-14 12:00:00 15.8 8 Sur 15 Sudeste 0 -- -- 61
2020-03-14 11:00:00 12.8 4 Sudeste 8 Sudeste 0 -- -- 77
2020-03-14 10:00:00 11.2 4 Este 20 Noroeste 0 -- -- 76
2020-03-14 09:00:00 9.3 15 Noroeste 26 Noroeste 0 -- -- 79
2020-03-14 08:00:00 9 15 Noroeste 25 Noroeste 0 -- -- 85
2020-03-14 07:00:00 9.3 17 Noroeste 23 Noroeste 0 -- -- 88
2020-03-14 06:00:00 9.4 9 Noroeste 20 Noroeste 0 -- -- 87
2020-03-14 05:00:00 9.1 4 Noroeste 18 Noroeste 0 -- -- 89
2020-03-14 04:00:00 8.8 4 Noroeste 9 Noroeste 0 -- -- 89
2020-03-14 03:00:00 8.6 5 Noroeste 9 Noroeste 0 -- -- 90
2020-03-14 02:00:00 9.2 2 Oeste 10 Noroeste 0 -- -- 88
2020-03-14 01:00:00 10.1 4 Norte 14 Noroeste 0 -- -- 86
2020-03-14 00:00:00 10.9 3 Sudoeste 5 Sur 0 -- -- 84
2020-03-13 23:00:00 11.4 0 Calma 5 Sudeste 0 -- -- 83
2020-03-13 22:00:00 11.6 0 Calma 6 Sur 0 -- -- 81
2020-03-13 21:00:00 12.1 0 Calma 13 Sudoeste 0 -- -- 79
2020-03-13 20:00:00 12.4 11 Sudoeste 15 Sur 0 -- -- 78
2020-03-13 19:00:00 13 9 Sur 19 Sur 0 -- -- 78
2020-03-13 18:00:00 14 9 Sur 17 Sur 0 -- -- 74
2020-03-13 17:00:00 14.3 6 Sur 10 Sur 0 -- -- 72
2020-03-13 16:00:00 14 5 Sudoeste 12 Sur 0 -- -- 74
2020-03-13 15:00:00 13.7 8 Sur 13 Este 0 -- -- 75
2020-03-13 14:00:00 13.3 7 Sudeste 14 Sudoeste 0 -- -- 79
2020-03-13 13:00:00 12.7 6 Sur 16 Sur 0 -- -- 80
2020-03-13 12:00:00 13 9 Sudeste 16 Este 0 -- -- 80
2020-03-13 11:00:00 13.2 9 Sur 22 Sur 0 -- -- 83
2020-03-13 10:00:00 11.9 10 Sur 14 Sur 0 -- -- 86
2020-03-13 09:00:00 10.8 8 Noroeste 18 Noroeste 0 -- -- 88
2020-03-13 08:00:00 10.3 12 Noroeste 25 Noroeste 0 -- -- 89
2020-03-13 07:00:00 10.4 9 Noroeste 21 Noroeste 0 -- -- 89
2020-03-13 06:00:00 10.6 11 Noroeste 26 Noroeste 0 -- -- 88
2020-03-13 05:00:00 11 8 Noroeste 15 Noroeste 0 -- -- 88
2020-03-13 04:00:00 11.8 10 Noroeste 27 Oeste 0 -- -- 85
2020-03-13 03:00:00 13.8 12 Oeste 38 Noroeste 0 -- -- 75
2020-03-13 02:00:00 13.2 20 Noroeste 46 Noroeste 0 -- -- 79
2020-03-13 01:00:00 13.1 27 Noroeste 41 Noroeste 0 -- -- 81
2020-03-13 00:00:00 13.4 21 Noroeste 34 Noroeste 1.2 -- -- 80
2020-03-12 23:00:00 14.4 18 Sudeste 33 Este 0.8 -- -- 73
2020-03-12 22:00:00 17.1 18 Noroeste 27 Noroeste 0 -- -- 56
2020-03-12 21:00:00 16.5 9 Norte 24 Noroeste 0 -- -- 55
2020-03-12 20:00:00 17.5 12 Noroeste 18 Oeste 0 -- -- 51
2020-03-12 19:00:00 19.8 2 Sur 7 Este 0 -- -- 46
2020-03-12 18:00:00 21.8 3 Sudeste 10 Sur 0 -- -- 41
2020-03-12 17:00:00 22.7 5 Sudeste 21 Sur 0 -- -- 37
2020-03-12 16:00:00 23.9 8 Sur 18 Sur 0 -- -- 35
2020-03-12 15:00:00 23.7 8 Sur 15 Sur 0 -- -- 34
2020-03-12 14:00:00 23.9 9 Sur 14 Sur 0 -- -- 35
2020-03-12 13:00:00 22.1 9 Sur 14 Sur 0 -- -- 34
2020-03-12 12:00:00 21.3 6 Sur 9 Sur 0 -- -- 39
2020-03-12 11:00:00 16.2 4 Sudeste 27 Noroeste 0 -- -- 49
2020-03-12 10:00:00 11.8 21 Noroeste 42 Noroeste 0 -- -- 58
2020-03-12 09:00:00 8.6 31 Noroeste 47 Noroeste 0 -- -- 70
2020-03-12 08:00:00 7.8 26 Noroeste 48 Noroeste 0 -- -- 73
2020-03-12 07:00:00 8 29 Noroeste 43 Noroeste 0 -- -- 72
2020-03-12 06:00:00 8.5 27 Noroeste 45 Noroeste 0 -- -- 71
2020-03-12 05:00:00 8.9 31 Noroeste 44 Noroeste 0 -- -- 70
2020-03-12 04:00:00 9.5 34 Noroeste 42 Noroeste 0 -- -- 67
2020-03-12 03:00:00 10 28 Noroeste 47 Noroeste 0 -- -- 66
2020-03-12 02:00:00 10.5 26 Noroeste 36 Noroeste 0 -- -- 65
2020-03-12 01:00:00 11.2 21 Noroeste 38 Noroeste 0 -- -- 62
2020-03-12 00:00:00 11.9 20 Noroeste 32 Noroeste 0 -- -- 59
2020-03-11 23:00:00 12.1 21 Noroeste 32 Noroeste 0 -- -- 59
2020-03-11 22:00:00 13.3 15 Noroeste 28 Noroeste 0 -- -- 55
2020-03-11 21:00:00 14.1 14 Noroeste 22 Noroeste 0 -- -- 51
2020-03-11 20:00:00 16.1 2 Nordeste 9 Sudeste 0 -- -- 49
2020-03-11 19:00:00 18.4 5 Sur 21 Sur 0 -- -- 45
2020-03-11 18:00:00 20.4 14 Sur 24 Sur 0 -- -- 42
2020-03-11 17:00:00 22.2 15 Sur 25 Sur 0 -- -- 37
2020-03-11 16:00:00 23.3 15 Sur 24 Sur 0 -- -- 30
2020-03-11 15:00:00 23.6 13 Sur 22 Sur 0 -- -- 29
2020-03-11 14:00:00 23.4 10 Sur 15 Sur 0 -- -- 30
2020-03-11 13:00:00 22.6 8 Sur 13 Sudoeste 0 -- -- 26
2020-03-11 12:00:00 20 9 Sudeste 13 Sur 0 -- -- 37
2020-03-11 11:00:00 13.9 9 Noroeste 31 Noroeste 0 -- -- 42
2020-03-11 10:00:00 10.3 20 Noroeste 51 Noroeste 0 -- -- 51
2020-03-11 09:00:00 6.9 29 Noroeste 47 Noroeste 0 -- -- 63
2020-03-11 08:00:00 5.6 36 Noroeste 50 Noroeste 0 -- -- 70
2020-03-11 07:00:00 5.4 35 Noroeste 50 Noroeste 0 -- -- 73
2020-03-11 06:00:00 6.1 31 Noroeste 51 Noroeste 0 -- -- 72
2020-03-11 05:00:00 6.5 28 Noroeste 44 Noroeste 0 -- -- 73
2020-03-11 04:00:00 7 25 Noroeste 42 Noroeste 0 -- -- 74
2020-03-11 03:00:00 7.7 22 Noroeste 41 Noroeste 0 -- -- 74
2020-03-11 02:00:00 8 24 Noroeste 40 Noroeste 0 -- -- 75
2020-03-11 01:00:00 8.8 18 Noroeste 28 Noroeste 0 -- -- 74
2020-03-11 00:00:00 9.3 13 Noroeste 25 Noroeste 0 -- -- 73
2020-03-10 23:00:00 10.4 12 Noroeste 28 Noroeste 0 -- -- 69
2020-03-10 22:00:00 11.5 17 Noroeste 30 Noroeste 0 -- -- 65
2020-03-10 21:00:00 12.2 11 Noroeste 15 Oeste 0 -- -- 63
2020-03-10 20:00:00 13.4 4 Este 9 Sudoeste 0 -- -- 58
2020-03-10 19:00:00 15.6 5 Sur 12 Sudoeste 0 -- -- 52
2020-03-10 18:00:00 17.4 6 Oeste 14 Sudoeste 0 -- -- 45
2020-03-10 17:00:00 17.9 7 Sur 14 Sur 0 -- -- 44
2020-03-10 16:00:00 17.2 13 Sur 18 Sudoeste 0 -- -- 43
2020-03-10 15:00:00 16.7 12 Sur 18 Sur 0 -- -- 44
2020-03-10 14:00:00 13.5 5 Sur 14 Sur 0 -- -- 48
2020-03-10 13:00:00 12 11 Sur 23 Sudoeste 0 -- -- 49
2020-03-10 12:00:00 14.7 6 Sudeste 13 Sur 0 -- -- 47
2020-03-10 11:00:00 12.1 5 Sur 13 Sur 0 -- -- 49
2020-03-10 10:00:00 8.1 4 Sudeste 12 Sur 0 -- -- 62
2020-03-10 09:00:00 4.7 4 Sudeste 13 Nordeste 0 -- -- 73
2020-03-10 08:00:00 3 4 Sur 9 Noroeste 0 -- -- 79
2020-03-10 07:00:00 2.7 0 Calma 11 Noroeste 0 -- -- 78
2020-03-10 06:00:00 2.6 3 Noroeste 12 Noroeste 0 -- -- 76
2020-03-10 05:00:00 4 4 Oeste 13 Sur 0 -- -- 70
2020-03-10 04:00:00 4.5 5 Este 11 Oeste 0 -- -- 67
2020-03-10 03:00:00 4.1 3 Sudoeste 12 Sudoeste 0 -- -- 69
2020-03-10 02:00:00 4.5 5 Sur 16 Sur 0 -- -- 67
2020-03-10 01:00:00 5.6 8 Sur 13 Sur 0 -- -- 62
2020-03-10 00:00:00 6.2 5 Sur 13 Sudoeste 0 -- -- 59
2020-03-09 23:00:00 7.8 11 Sudoeste 18 Sudoeste 0 -- -- 52
2020-03-09 22:00:00 8.3 4 Sur 15 Sur 0 -- -- 49
2020-03-09 21:00:00 9.3 2 Este 24 Noroeste 0 -- -- 45
2020-03-09 20:00:00 10.2 9 Oeste 23 Noroeste 0 -- -- 41
2020-03-09 19:00:00 10.7 9 Oeste 23 Noroeste 0 -- -- 41
2020-03-09 18:00:00 11.2 12 Oeste 33 Noroeste 0 -- -- 39
2020-03-09 17:00:00 12 13 Oeste 45 Noroeste 0 -- -- 36
2020-03-09 16:00:00 13 18 Noroeste 45 Noroeste 0 -- -- 31
2020-03-09 15:00:00 13.4 16 Noroeste 48 Noroeste 0 -- -- 30
2020-03-09 14:00:00 13.4 20 Norte 51 Noroeste 0 -- -- 28
2020-03-09 13:00:00 13.2 23 Noroeste 49 Noroeste 0 -- -- 28
2020-03-09 12:00:00 13.3 15 Sudoeste 35 Oeste 0 -- -- 35
2020-03-09 11:00:00 11.7 4 Sudeste 11 Sudeste 0 -- -- 57
2020-03-09 10:00:00 9.2 5 Sudeste 8 Sudeste 0 -- -- 62
2020-03-09 09:00:00 5.4 3 Este 7 Oeste 0 -- -- 81
2020-03-09 08:00:00 3.2 8 Oeste 24 Noroeste 0 -- -- 81
2020-03-09 07:00:00 3.2 14 Noroeste 28 Noroeste 0 -- -- 82
2020-03-09 06:00:00 3.1 18 Noroeste 37 Noroeste 0 -- -- 85
2020-03-09 05:00:00 3.4 17 Noroeste 31 Noroeste 0 -- -- 84
2020-03-09 04:00:00 4 19 Noroeste 36 Noroeste 0 -- -- 83
2020-03-09 03:00:00 4.1 24 Noroeste 35 Noroeste 0 -- -- 83
2020-03-09 02:00:00 4.9 19 Noroeste 35 Noroeste 0 -- -- 81
2020-03-09 01:00:00 5.7 22 Noroeste 38 Noroeste 0 -- -- 77
2020-03-09 00:00:00 6.2 23 Noroeste 35 Noroeste 0 -- -- 77
2020-03-08 23:00:00 7.5 17 Noroeste 33 Noroeste 0 -- -- 72
2020-03-08 22:00:00 8.5 16 Noroeste 26 Noroeste 0 -- -- 69
2020-03-08 21:00:00 9.3 12 Noroeste 18 Noroeste 0 -- -- 67
2020-03-08 20:00:00 10.4 3 Este 8 Este 0 -- -- 64
2020-03-08 19:00:00 12.2 6 Sur 15 Este 0 -- -- 58
2020-03-08 18:00:00 13.3 12 Sudeste 17 Sudoeste 0 -- -- 54
2020-03-08 17:00:00 14.5 6 Sur 24 Sur 0 -- -- 47
2020-03-08 16:00:00 16 12 Sur 23 Sur 0 -- -- 42
2020-03-08 15:00:00 16.3 13 Sur 24 Sur 0 -- -- 38
2020-03-08 14:00:00 16.1 8 Sudeste 21 Sur 0 -- -- 42
2020-03-08 13:00:00 14.9 8 Sur 14 Sur 0 -- -- 43
2020-03-08 12:00:00 13.6 5 Sudeste 11 Sudeste 0 -- -- 47
2020-03-08 11:00:00 9 9 Noroeste 26 Noroeste 0 -- -- 51
2020-03-08 10:00:00 5.4 18 Noroeste 38 Noroeste 0 -- -- 64
2020-03-08 09:00:00 3 26 Noroeste 41 Noroeste 0 -- -- 75
2020-03-08 08:00:00 2 26 Noroeste 41 Noroeste 0 -- -- 79
2020-03-08 07:00:00 2.8 27 Noroeste 42 Noroeste 0 -- -- 75
2020-03-08 06:00:00 3.8 32 Noroeste 43 Noroeste 0 -- -- 72
2020-03-08 05:00:00 4.4 26 Noroeste 36 Noroeste 0 -- -- 71
2020-03-08 04:00:00 5.5 17 Noroeste 29 Noroeste 0 -- -- 67
2020-03-08 03:00:00 6.6 15 Noroeste 27 Noroeste 0 -- -- 62
2020-03-08 02:00:00 7 25 Noroeste 38 Noroeste 0 -- -- 59
2020-03-08 01:00:00 7.8 22 Noroeste 39 Noroeste 0 -- -- 56
2020-03-08 00:00:00 9.2 16 Noroeste 31 Norte 0 -- -- 51
2020-03-07 23:00:00 9.5 18 Norte 40 Noroeste 0 -- -- 49
2020-03-07 22:00:00 10.1 11 Norte 34 Sudeste 0 -- -- 47
2020-03-07 21:00:00 10.6 14 Noroeste 39 Noroeste 0 -- -- 45
2020-03-07 20:00:00 11.1 20 Oeste 54 Noroeste 0 -- -- 43
2020-03-07 19:00:00 11.6 18 Oeste 55 Noroeste 0 -- -- 42
2020-03-07 18:00:00 12.1 21 Oeste 54 Norte 0 -- -- 40
2020-03-07 17:00:00 13 18 Noroeste 52 Noroeste 0 -- -- 37
2020-03-07 16:00:00 14 17 Oeste 59 Noroeste 0 -- -- 35
2020-03-07 15:00:00 13.7 19 Oeste 54 Noroeste 0 -- -- 33
2020-03-07 14:00:00 14.2 12 Sudeste 40 Noroeste 0 -- -- 27
2020-03-07 13:00:00 13.7 9 Sur 49 Sudeste 0 -- -- 21
2020-03-07 12:00:00 11.9 11 Nordeste 50 Noroeste 0 -- -- 22
2020-03-07 11:00:00 10.5 18 Oeste 73 Noroeste 0 -- -- 31
2020-03-07 10:00:00 8.6 30 Norte 76 Noroeste 0 -- -- 40
2020-03-07 09:00:00 7.2 31 Norte 69 Noroeste 0 -- -- 45
2020-03-07 08:00:00 5.3 21 Noroeste 56 Noroeste 0 -- -- 53
2020-03-07 07:00:00 4.3 21 Oeste 58 Noroeste 0 -- -- 58
2020-03-07 06:00:00 3.9 13 Norte 52 Norte 0 -- -- 61
2020-03-07 05:00:00 3.2 11 Este 45 Norte 0 -- -- 68
2020-03-07 04:00:00 2.8 25 Noroeste 49 Noroeste 0 -- -- 74
2020-03-07 03:00:00 2.2 17 Noroeste 43 Noroeste 0 -- -- 78
2020-03-07 02:00:00 1.4 15 Noroeste 34 Noroeste 0 -- -- 86
2020-03-07 01:00:00 2.2 14 Noroeste 32 Noroeste 0 -- -- 77
2020-03-07 00:00:00 2.4 16 Noroeste 29 Noroeste 0 -- -- 78
2020-03-06 23:00:00 2 15 Noroeste 25 Noroeste 0 -- -- 84
2020-03-06 22:00:00 2.1 14 Noroeste 29 Noroeste 0 -- -- 84
2020-03-06 21:00:00 2.1 9 Noroeste 33 Noroeste 0 -- -- 82
2020-03-06 20:00:00 1.9 21 Noroeste 57 Noroeste 0 -- -- 80
2020-03-06 19:00:00 4.7 7 Nordeste 33 Noroeste 0 -- -- 60
2020-03-06 18:00:00 6.7 16 Norte 40 Noroeste 0 -- -- 48
2020-03-06 17:00:00 7.8 19 Noroeste 45 Noroeste 0 -- -- 38
2020-03-06 16:00:00 8.1 13 Noroeste 56 Noroeste 0 -- -- 37
2020-03-06 15:00:00 9.1 26 Norte 62 Noroeste 0 -- -- 38
2020-03-06 14:00:00 10.6 9 Norte 32 Noroeste 0 -- -- 37
2020-03-06 13:00:00 8.6 8 Noroeste 17 Este 0 -- -- 52
2020-03-06 12:00:00 9.6 7 Sur 16 Sudeste 0 -- -- 50
2020-03-06 11:00:00 7.7 6 Sudeste 20 Noroeste 0 -- -- 64
2020-03-06 10:00:00 3.2 12 Noroeste 25 Noroeste 0 -- -- 70
2020-03-06 09:00:00 0.8 19 Noroeste 30 Noroeste 0 -- -- 80
2020-03-06 08:00:00 0.2 16 Noroeste 30 Noroeste 0 -- -- 82
2020-03-06 07:00:00 0.3 18 Noroeste 24 Noroeste 0 -- -- 84
2020-03-06 06:00:00 0.3 4 Norte 32 Noroeste 0 -- -- 82
2020-03-06 05:00:00 0.6 19 Noroeste 26 Noroeste 0 -- -- 82
2020-03-06 04:00:00 1.2 18 Noroeste 33 Noroeste 0 -- -- 79
2020-03-06 03:00:00 1.7 18 Noroeste 30 Noroeste 0 -- -- 80
2020-03-06 02:00:00 2.5 12 Noroeste 22 Noroeste 0 -- -- 76
2020-03-06 01:00:00 3.4 10 Noroeste 18 Noroeste 0 -- -- 74
2020-03-06 00:00:00 4.6 8 Noroeste 21 Noroeste 0 -- -- 67
2020-03-05 23:00:00 6.9 11 Noroeste 31 Noroeste 0 -- -- 52
2020-03-05 22:00:00 7.2 19 Noroeste 30 Noroeste 0 -- -- 58
2020-03-05 21:00:00 8.7 9 Oeste 25 Noroeste 0 -- -- 53
2020-03-05 20:00:00 9.4 13 Norte 28 Noroeste 0 -- -- 61
2020-03-05 19:00:00 10 12 Noroeste 27 Noroeste 0 -- -- 62
2020-03-05 18:00:00 10.9 8 Sudoeste 18 Este 0 -- -- 60
2020-03-05 17:00:00 11.5 6 Noroeste 43 Noroeste 0 -- -- 64
2020-03-05 16:00:00 11.5 22 Sur 40 Sur 1.2 -- -- 67
2020-03-05 15:00:00 9.7 6 Sur 12 Sudeste 3.6 -- -- 90
2020-03-05 14:00:00 9.5 5 Sudeste 24 Sudeste 1 -- -- 90
2020-03-05 13:00:00 9.2 11 Este 19 Nordeste 1 -- -- 91
2020-03-05 12:00:00 8.9 6 Sur 12 Sudoeste 0.4 -- -- 90
2020-03-05 11:00:00 8.9 4 Sur 15 Noroeste 0.2 -- -- 87
2020-03-05 10:00:00 8.4 11 Noroeste 29 Noroeste 0 -- -- 81
2020-03-05 09:00:00 6.8 14 Noroeste 28 Noroeste 0 -- -- 87
2020-03-05 08:00:00 6.4 18 Noroeste 34 Noroeste 0 -- -- 88
2020-03-05 07:00:00 6.6 23 Noroeste 32 Noroeste 0 -- -- 88
2020-03-05 06:00:00 6.9 13 Norte 36 Noroeste 0 -- -- 87
2020-03-05 05:00:00 6.9 19 Noroeste 32 Noroeste 0 -- -- 87
2020-03-05 04:00:00 6.9 20 Noroeste 33 Noroeste 0 -- -- 88
2020-03-05 03:00:00 7.2 14 Noroeste 27 Noroeste 0 -- -- 87
2020-03-05 02:00:00 7.9 18 Noroeste 28 Noroeste 0 -- -- 85
2020-03-05 01:00:00 8.4 19 Noroeste 37 Noroeste 0 -- -- 84
2020-03-05 00:00:00 9 16 Noroeste 34 Noroeste 0 -- -- 82
2020-03-04 23:00:00 9.5 14 Noroeste 23 Noroeste 0 -- -- 82
2020-03-04 22:00:00 10.1 17 Noroeste 22 Noroeste 0 -- -- 80
2020-03-04 21:00:00 11.4 12 Noroeste 19 Noroeste 0 -- -- 76
2020-03-04 20:00:00 13.2 9 Noroeste 14 Noroeste 0 -- -- 70
2020-03-04 19:00:00 14.9 4 Sudoeste 14 Sur 0 -- -- 64
2020-03-04 18:00:00 15.9 0 Calma 16 Sudoeste 0 -- -- 60
2020-03-04 17:00:00 16.9 9 Sudoeste 15 Sudoeste 0 -- -- 56
2020-03-04 16:00:00 16.7 7 Sur 16 Sur 0 -- -- 56
2020-03-04 15:00:00 15.4 7 Sur 16 Sur 0 -- -- 54
2020-03-04 14:00:00 14.9 8 Sur 17 Sur 0 -- -- 53
2020-03-04 13:00:00 14.7 6 Sur 12 Sudoeste 0 -- -- 47
2020-03-04 12:00:00 11.7 3 Sur 12 Noroeste 0 -- -- 47
2020-03-04 11:00:00 9 4 Nordeste 21 Noroeste 0 -- -- 51
2020-03-04 10:00:00 5.5 10 Norte 35 Noroeste 0 -- -- 58
2020-03-04 09:00:00 3.2 17 Noroeste 42 Noroeste 0 -- -- 69
2020-03-04 08:00:00 1.6 26 Noroeste 37 Noroeste 0 -- -- 74
2020-03-04 07:00:00 2 21 Noroeste 40 Noroeste 0 -- -- 71
2020-03-04 06:00:00 2.2 22 Noroeste 47 Noroeste 0 -- -- 72
2020-03-04 05:00:00 2.4 14 Noroeste 27 Noroeste 0 -- -- 74
2020-03-04 04:00:00 3 9 Noroeste 22 Noroeste 0 -- -- 70
2020-03-04 03:00:00 3.9 9 Noroeste 19 Noroeste 0 -- -- 65
2020-03-04 02:00:00 4.5 3 Norte 13 Noroeste 0 -- -- 63
2020-03-04 01:00:00 5.9 0 Calma 8 Noroeste 0 -- -- 57
2020-03-04 00:00:00 8.4 3 Nordeste 29 Oeste 0 -- -- 46
2020-03-03 23:00:00 8.7 14 Oeste 32 Oeste 0 -- -- 47
2020-03-03 22:00:00 9 17 Oeste 48 Noroeste 0 -- -- 48
2020-03-03 21:00:00 9.7 26 Noroeste 53 Noroeste 0 -- -- 46
2020-03-03 20:00:00 11 17 Noroeste 51 Noroeste 0 -- -- 39
2020-03-03 19:00:00 8.9 10 Sudoeste 23 Sudoeste 0 -- -- 58
2020-03-03 18:00:00 8.6 10 Sur 22 Sur 0 -- -- 69
2020-03-03 17:00:00 9.2 10 Sudeste 26 Nordeste 0 -- -- 68
2020-03-03 16:00:00 7.9 15 Nordeste 29 Este 0 -- -- 75
2020-03-03 15:00:00 6.6 8 Este 21 Norte 0 -- -- 86
2020-03-03 14:00:00 4.2 3 Sur 13 Noroeste 0.2 -- -- 91
2020-03-03 13:00:00 3.5 5 Noroeste 12 Noroeste 0.2 -- -- 90
2020-03-03 12:00:00 2.1 6 Noroeste 14 Noroeste 0.8 -- -- 90
2020-03-03 11:00:00 2 11 Noroeste 17 Noroeste 0 -- -- 84
2020-03-03 10:00:00 1.7 11 Noroeste 22 Noroeste 0 -- -- 81
2020-03-03 09:00:00 1.6 8 Norte 20 Noroeste 0 -- -- 78
2020-03-03 08:00:00 1.2 15 Noroeste 23 Noroeste 0 -- -- 82
2020-03-03 07:00:00 1 10 Noroeste 18 Noroeste 0 -- -- 82
2020-03-03 06:00:00 0.9 12 Noroeste 22 Noroeste 0 -- -- 83
2020-03-03 05:00:00 0.7 3 Sudoeste 17 Noroeste 0 -- -- 82
2020-03-03 04:00:00 0.1 3 Este 21 Noroeste 0 -- -- 83
2020-03-03 03:00:00 0.5 4 Oeste 6 Sudoeste 0 -- -- 83
2020-03-03 02:00:00 1.2 3 Oeste 14 Sudoeste 0 -- -- 78
2020-03-03 01:00:00 2.3 10 Oeste 17 Noroeste 0 -- -- 73
2020-03-03 00:00:00 3.4 8 Noroeste 15 Noroeste 0 -- -- 66
2020-03-02 23:00:00 4 5 Oeste 10 Norte 0 -- -- 66
2020-03-02 22:00:00 4.7 5 Oeste 11 Oeste 0 -- -- 60
2020-03-02 21:00:00 5.1 8 Noroeste 18 Noroeste 0 -- -- 54
2020-03-02 20:00:00 5.9 8 Noroeste 20 Noroeste 0 -- -- 50
2020-03-02 19:00:00 6.9 14 Noroeste 34 Noroeste 0 -- -- 45
2020-03-02 18:00:00 8.4 12 Oeste 35 Noroeste 0 -- -- 36
2020-03-02 17:00:00 9.2 15 Noroeste 58 Noroeste 0 -- -- 34
2020-03-02 16:00:00 9.6 20 Norte 45 Noroeste 0 -- -- 35
2020-03-02 15:00:00 11.3 23 Noroeste 60 Noroeste 0 -- -- 29
2020-03-02 14:00:00 11.3 15 Noroeste 46 Noroeste 0 -- -- 37
2020-03-02 13:00:00 10.9 31 Noroeste 63 Noroeste 0 -- -- 41
2020-03-02 12:00:00 9.6 7 Oeste 26 Norte 0 -- -- 67
2020-03-02 11:00:00 8.7 9 Sudoeste 44 Sudoeste 0.2 -- -- 69
2020-03-02 10:00:00 9.4 19 Sudoeste 50 Sur 0 -- -- 70
2020-03-02 09:00:00 8.1 6 Sudeste 36 Sur 0 -- -- 83
2020-03-02 08:00:00 8.6 12 Sudeste 34 Nordeste 5.2 -- -- 91
2020-03-02 07:00:00 8.3 11 Sur 23 Sur 4 -- -- 94
2020-03-02 06:00:00 8 11 Sudoeste 29 Este 5.4 -- -- 94
2020-03-02 05:00:00 7.5 10 Sur 22 Sur 5 -- -- 95
2020-03-02 04:00:00 6.9 5 Sudeste 13 Sur 5.8 -- -- 95
2020-03-02 03:00:00 6.9 5 Sudeste 13 Sur 5.8 -- -- 94
2020-03-02 02:00:00 7 3 Sudeste 12 Noroeste 3.2 -- -- 92
2020-03-02 01:00:00 7.3 4 Norte 22 Noroeste 0.6 -- -- 89
2020-03-02 00:00:00 7.4 12 Noroeste 20 Noroeste 0.6 -- -- 89